Aviation Digital Data Service (ADDS)

Output produced by METARs form (0640 UTC 24 March 2019)
found at http://www.aviationweather.gov/metar/data/
 
KALM 240635Z AUTO 04005KT 10SM CLR 12/M10 A3009 RMK AO2
KABQ 240552Z 01005KT 10SM BKN240 10/M03 A3009 RMK AO2 SLP152 T01001033 10178 20100 51010
KABQ 240539Z 2406/2506 35005KT P6SM FEW070 SCT250 
     FM241800 28009KT P6SM SCT200 
     FM242100 28015G22KT P6SM SKC 
     FM250300 35006KT P6SM SKC
       
KAEG 240635Z AUTO 31008KT 10SM CLR 05/M04 A3010 RMK AO2 T00451041
KAEG 240539Z 2406/2506 31005KT P6SM FEW070 SCT250 
     FM241800 28011KT P6SM SCT200 
     FM242100 28017G25KT P6SM SKC 
     FM250300 30008KT P6SM SKC
       
KAXX 240635Z AUTO 28013G19KT 10SM 02/M06 A3012 RMK AO2 T00181059
KATS 240635Z AUTO 27009KT 10SM CLR 11/M10 A3003 RMK AO2
KCNM 240553Z AUTO 27007KT 10SM CLR 09/M06 A3000 RMK AO2 SLP127 T00941061 10233 20094 50003
KCNM 240520Z 2406/2506 25011KT P6SM FEW250 
     FM241800 27014G22KT P6SM FEW250 
     FM250200 27011KT P6SM SKC
       
KCAO 240555Z AUTO 34008KT 10SM CLR 04/01 A3006 RMK AO2 SLP159 T00390011 10161 20033 51028
KCVN 240556Z AUTO 30008KT 10SM 08/M02 A3004 RMK AO2 SLP155 T00781022 10200 20078 51009 $
KDMN 240553Z AUTO 28006KT 10SM CLR 08/M08 A3010 RMK AO2 SLP155 T00781083 10206 20078 51008
KDMN 240534Z 2406/2506 28007KT P6SM SCT250 
     FM241800 27013G22KT P6SM BKN250 
     FM250300 28010KT P6SM SCT250
       
KFMN 240553Z AUTO 05005KT 10SM CLR 04/M02 A3009 RMK AO2 SLP177 T00391017 10128 20033 51004
KFMN 240539Z 2406/2506 03006KT P6SM SCT250 
     FM241100 07005KT P6SM SCT250 
     FM241900 28010KT P6SM SKC 
     FM250200 VRB04KT P6SM SKC
       
KGUP 240553Z AUTO 00000KT 10SM CLR 02/M06 A3013 RMK AO2 SLP168 T00171056 10133 20000 51006
KGUP 240539Z 2406/2506 22003KT P6SM FEW250 
     FM241900 25011KT P6SM FEW080 
     FM250200 23006KT P6SM SKC
       
KGNT 240635Z AUTO 00000KT 10SM CLR M01/M08 A3015 RMK AO2 T10061078
KHOB 240635Z AUTO 23004KT 10SM CLR 08/M07 A3004 RMK AO2
KHOB 240520Z 2406/2506 25011KT P6SM FEW250
       
KLRU 240635Z AUTO 26009KT 10SM CLR 13/M08 A3010 RMK AO2 T01251083
KLRU 240534Z 2406/2506 28007KT P6SM SCT250 
     FM241800 27012G20KT P6SM BKN250 
     FM250200 28010KT P6SM SCT250
       
KLVS 240553Z AUTO 02005KT 10SM CLR 03/M05 A3007 RMK AO2 SLP137 T00281050 10122 20022 58001
KLVS 240539Z 2406/2506 34009KT P6SM FEW200 
     FM241700 27014KT P6SM SCT080 
     FM242100 28018G28KT P6SM SCT120 
     FM250200 28010KT P6SM FEW200
       
KLAM 240635Z AUTO 00000KT 10SM SCT100 05/M04 A3014 RMK AO2 T00491045
K0E0 240615Z AUTO 31007KT 10SM CLR 02/M03 A3012 RMK AO2 T00181027
KRTN 240553Z AUTO 36006KT 10SM CLR 03/M03 A3007 RMK AO2 SLP147 T00281028 10139 20011 50017
KROW 240551Z AUTO 00000KT 10SM CLR 10/M06 A3000 RMK AO2 SLP120 T01001061 10233 20083 50004
KROW 240539Z 2406/2506 25006KT P6SM FEW200 
     FM241200 01006KT P6SM SKC 
     FM242100 28012KT P6SM SCT250 
     FM250200 27008KT P6SM FEW250
       
KSRR 240635Z AUTO 23006KT 10SM CLR 08/M13 A3014 RMK AO2
KSAF 240553Z AUTO 01009KT 10SM CLR 04/M04 A3010 RMK AO2 SLP152 T00441039 10139 20039 51004
KSAF 240539Z 2406/2506 31006KT P6SM SCT060 
     FM241400 35009G16KT P6SM SCT040 
     FM241900 28012KT P6SM SCT200 
     FM242000 28018G28KT P6SM FEW200 
     FM250200 35006KT P6SM FEW200
       
KSXU 240635Z AUTO 00000KT 10SM CLR 05/M02 A3004 RMK AO2 T00541022
KSVC 240635Z AUTO 34008KT 10SM CLR 03/M07 A3014 RMK AO2 T00311075
KONM 240615Z AUTO 31005KT 10SM CLR 12/M09 A3007 RMK AO2 T01171089
KSKX 240556Z AUTO 09005KT 10SM OVC075 04/M01 A3016 RMK AO2 SLP197 T00391011 10094 20039 50001 $
KTCS 240553Z AUTO 31007KT 10SM CLR 12/M10 A3009 RMK AO2 SLP139 T01171100 10217 20117 51018
KTCS 240534Z 2406/2506 27007KT P6SM SCT250 
     FM241800 25010G19KT P6SM SCT250 
     FM250200 29010KT P6SM SCT250
       
KTCC 240553Z AUTO 30010KT 10SM SCT120 09/M02 A2999 RMK AO2 SLP125 T00941022 10211 20089 51015
KTCC 240539Z 2406/2506 27009KT P6SM FEW200 
     FM240700 01012KT P6SM FEW200 
     FM241800 27009KT P6SM SKC 
     FM242100 26017G27KT P6SM FEW250 
     FM250200 25009KT P6SM FEW200